createdAt,value
2022-08-30T03:17:03.118Z,2.87
2022-08-30T03:20:13.876Z,2.83
2022-08-30T03:23:24.453Z,2.43
2022-08-30T03:26:34.275Z,2.90
2022-08-30T03:29:43.876Z,2.93
2022-08-30T03:32:54.699Z,3.10
2022-08-30T03:36:05.439Z,2.90
2022-08-30T03:39:15.006Z,3.07
2022-08-30T03:42:25.095Z,2.97
2022-08-30T03:45:35.000Z,2.80
2022-08-30T03:48:45.938Z,2.63
2022-08-30T03:51:55.521Z,3.13
2022-08-30T03:55:05.626Z,2.50
2022-08-30T03:58:15.171Z,2.67
2022-08-30T04:01:28.862Z,2.63
2022-08-30T04:04:39.823Z,2.70
2022-08-30T04:07:49.822Z,3.30
2022-08-30T04:11:00.070Z,3.37
2022-08-30T04:14:09.834Z,2.83
2022-08-30T04:17:20.239Z,3.10
2022-08-30T04:20:31.111Z,3.30
2022-08-30T04:23:40.750Z,3.20
2022-08-30T04:26:50.323Z,3.37
2022-08-30T04:30:00.224Z,3.10
2022-08-30T04:33:10.002Z,3.23
2022-08-30T04:36:23.473Z,3.00
2022-08-30T17:08:26.068Z,2.40
2022-08-30T17:11:38.257Z,2.20
2022-08-30T17:14:50.125Z,2.23
2022-08-30T17:17:59.978Z,2.07
2022-08-30T17:21:11.273Z,2.10
2022-08-30T17:24:23.523Z,2.83
2022-08-30T17:27:34.535Z,2.43
2022-08-30T17:34:16.138Z,2.60
2022-08-30T17:37:26.541Z,2.17
2022-08-30T17:40:38.322Z,2.40
2022-08-30T17:43:51.372Z,2.10
2022-08-30T17:47:02.115Z,2.10
2022-08-30T17:50:14.542Z,2.13
2022-08-30T17:53:24.339Z,2.07
2022-08-30T17:56:36.584Z,2.10
2022-08-30T17:59:49.476Z,2.13
2022-08-30T18:03:01.443Z,2.20
2022-08-30T18:06:12.630Z,2.10
2022-08-30T18:09:25.243Z,2.50
2022-08-30T18:12:37.807Z,2.30
2022-08-30T18:15:48.112Z,2.60
2022-08-30T18:19:00.666Z,2.03
2022-08-30T18:22:10.639Z,2.33
2022-08-30T18:25:21.162Z,2.10
2022-08-30T18:28:34.125Z,2.60
2022-08-30T18:31:43.957Z,2.60
2022-08-30T18:34:53.734Z,2.70
2022-08-30T18:38:06.642Z,2.70
2022-08-30T18:41:17.221Z,2.83
2022-08-30T18:44:29.213Z,2.60
2022-08-30T18:47:39.504Z,2.80
2022-08-30T18:50:50.778Z,2.90
2022-08-30T18:54:00.617Z,2.80
2022-08-30T18:57:14.273Z,2.57
2022-08-30T19:00:27.155Z,2.40
2022-08-30T19:03:37.754Z,2.17
2022-08-30T19:06:47.763Z,2.60
2022-08-30T19:09:58.877Z,2.80
2022-08-30T19:13:12.303Z,2.50
2022-08-30T19:16:26.379Z,2.97
2022-08-30T19:19:46.304Z,2.20
2022-08-30T19:23:09.294Z,2.40
2022-08-30T19:26:19.995Z,2.70
2022-08-30T19:29:30.061Z,2.73
2022-08-30T19:32:43.320Z,3.00
2022-08-30T19:35:58.363Z,2.60
2022-08-30T19:39:11.881Z,2.70
2022-08-30T19:42:21.494Z,2.90
2022-08-30T19:45:34.006Z,2.53
2022-08-30T19:48:45.268Z,2.50
2022-08-30T19:51:57.200Z,2.63
2022-08-30T19:55:09.486Z,2.53
2022-08-30T19:58:19.312Z,2.47
2022-08-30T20:01:33.635Z,2.70
2022-08-30T20:04:46.024Z,2.60
2022-08-30T20:24:23.739Z,2.43
